createdAt,value
2022-11-25T00:00:06.260Z,5.10
2022-11-25T04:00:32.628Z,4.40
2022-11-25T04:03:04.575Z,4.30
2022-11-25T04:05:32.904Z,4.30
2022-11-25T04:08:04.626Z,4.30
2022-11-25T04:10:33.079Z,4.30
2022-11-25T04:12:59.963Z,4.20
2022-11-25T04:15:33.947Z,4.20
2022-11-25T04:18:01.347Z,4.20
2022-11-25T04:20:29.598Z,4.10
2022-11-25T04:23:02.155Z,4.10
2022-11-25T04:25:29.131Z,4.10
2022-11-25T04:27:56.289Z,4.00
2022-11-25T04:30:30.315Z,3.90
2022-11-25T04:32:57.358Z,3.90
2022-11-25T04:35:24.285Z,3.80
2022-11-25T04:37:55.334Z,3.80
2022-11-25T04:40:24.151Z,3.90
2022-11-25T04:43:04.670Z,3.80
2022-11-25T04:45:58.584Z,3.80
2022-11-25T04:48:21.608Z,3.80
2022-11-25T04:50:48.671Z,3.80
2022-11-25T04:53:16.958Z,3.80
2022-11-25T04:55:43.881Z,3.80
2022-11-25T04:58:35.893Z,3.90
2022-11-25T05:01:04.692Z,3.90
2022-11-25T05:03:32.713Z,3.80
2022-11-25T05:05:59.676Z,3.80
2022-11-25T05:08:28.893Z,3.90
2022-11-25T05:10:55.798Z,3.90
2022-11-25T05:13:23.259Z,3.80
2022-11-25T05:15:50.138Z,3.80
2022-11-25T05:18:19.071Z,3.70
2022-11-25T05:20:48.218Z,3.70
2022-11-25T05:23:17.996Z,3.70
2022-11-25T05:25:46.261Z,3.70
2022-11-25T05:28:39.062Z,3.70
2022-11-25T05:31:06.147Z,3.70
2022-11-25T05:33:33.163Z,3.80
2022-11-25T05:36:02.000Z,3.70
2022-11-25T05:38:36.063Z,3.80
2022-11-25T05:41:06.327Z,3.70
2022-11-25T05:43:33.971Z,3.70
2022-11-25T05:46:05.088Z,3.70
2022-11-25T05:48:32.955Z,3.70
2022-11-25T05:51:00.825Z,3.70
2022-11-25T05:53:29.728Z,3.70
2022-11-25T05:55:59.228Z,3.70
2022-11-25T05:58:45.845Z,3.60
2022-11-25T06:01:15.754Z,3.60
2022-11-25T06:03:43.516Z,3.60
2022-11-25T06:06:11.413Z,3.70
2022-11-25T06:08:39.846Z,3.70
2022-11-25T06:11:08.157Z,3.70
2022-11-25T06:13:35.141Z,3.60
2022-11-25T06:16:09.196Z,3.60
2022-11-25T06:18:36.525Z,3.70
2022-11-25T06:21:04.228Z,3.70
2022-11-25T06:23:31.556Z,3.80
2022-11-25T06:26:03.889Z,3.80
2022-11-25T06:28:30.904Z,3.80
2022-11-25T06:31:03.565Z,3.80
2022-11-25T06:33:37.840Z,3.80
2022-11-25T06:36:13.409Z,3.90
2022-11-25T06:38:40.243Z,3.90
2022-11-25T06:41:07.060Z,4.00
2022-11-25T06:43:33.956Z,3.90
2022-11-25T06:46:05.318Z,3.90
2022-11-25T06:48:32.766Z,3.90
2022-11-25T06:51:03.482Z,3.90
2022-11-25T06:53:31.073Z,3.90
2022-11-25T06:56:10.990Z,3.90
2022-11-25T06:58:38.333Z,3.90
2022-11-25T07:01:06.717Z,3.90
2022-11-25T07:03:34.420Z,4.00
2022-11-25T07:06:02.815Z,4.00
2022-11-25T07:08:33.962Z,4.10
2022-11-25T07:11:05.831Z,4.20
2022-11-25T07:13:33.117Z,4.20
2022-11-25T07:16:03.591Z,4.30
2022-11-25T07:18:32.031Z,4.30
2022-11-25T07:21:05.087Z,4.40
2022-11-25T07:23:32.085Z,4.40
2022-11-25T07:26:02.895Z,4.50
2022-11-25T07:28:29.898Z,4.60
2022-11-25T07:33:44.241Z,4.70
2022-11-25T07:36:13.933Z,4.80
2022-11-25T07:38:46.311Z,4.80
2022-11-25T07:41:17.371Z,4.80
2022-11-25T07:43:45.426Z,4.80
2022-11-25T07:46:16.804Z,4.80
2022-11-25T07:48:44.556Z,4.90
2022-11-25T07:51:17.902Z,5.00
2022-11-25T07:53:45.924Z,5.00
2022-11-25T07:56:13.430Z,5.10
2022-11-25T07:58:45.689Z,5.10
2022-11-25T08:01:14.165Z,5.10
2022-11-25T08:03:42.685Z,5.20
2022-11-25T08:06:12.108Z,5.30
2022-11-25T08:08:41.464Z,5.30
2022-11-25T08:11:09.301Z,5.40
2022-11-25T08:13:36.619Z,5.40
2022-11-25T08:16:04.054Z,5.40
2022-11-25T08:18:31.154Z,5.50
2022-11-25T08:21:00.279Z,5.50
2022-11-25T08:23:27.479Z,5.50
2022-11-25T08:25:55.761Z,5.50
2022-11-25T08:28:23.381Z,5.50
2022-11-25T08:30:50.350Z,5.60
2022-11-25T08:33:17.214Z,5.70
2022-11-25T08:35:44.133Z,5.70
2022-11-25T08:38:12.361Z,5.70
2022-11-25T08:40:43.632Z,5.80
2022-11-25T08:43:11.923Z,5.90
2022-11-25T08:45:39.657Z,5.90
2022-11-25T08:48:06.584Z,6.00
2022-11-25T08:50:34.122Z,6.00
2022-11-25T08:53:01.690Z,6.00
2022-11-25T08:55:29.044Z,6.10
2022-11-25T08:57:55.910Z,6.10
2022-11-25T09:00:24.393Z,6.20
2022-11-25T09:02:51.243Z,6.20
2022-11-25T09:05:18.132Z,6.40
2022-11-25T09:07:45.153Z,6.60
2022-11-25T09:10:15.210Z,6.80
2022-11-25T09:12:42.241Z,7.00
2022-11-25T09:15:10.633Z,7.20
2022-11-25T09:17:39.021Z,7.50
2022-11-25T09:20:07.122Z,7.80
2022-11-25T09:22:33.939Z,7.90
2022-11-25T09:25:00.776Z,8.00
2022-11-25T09:27:27.615Z,8.10
2022-11-25T09:29:54.456Z,8.10
2022-11-25T09:32:21.309Z,8.00
2022-11-25T09:34:49.511Z,8.00
2022-11-25T09:37:16.338Z,8.00
2022-11-25T09:39:43.223Z,7.90
2022-11-25T09:42:44.489Z,7.80
2022-11-25T09:45:38.700Z,7.80
2022-11-25T09:48:26.172Z,7.80
2022-11-25T09:51:05.539Z,7.80
2022-11-25T09:53:42.860Z,7.80
2022-11-25T09:56:16.697Z,7.80
2022-11-25T09:58:48.578Z,7.80
2022-11-25T10:01:19.075Z,7.80
2022-11-25T10:03:50.289Z,7.80
2022-11-25T10:06:23.753Z,7.80
2022-11-25T10:08:52.564Z,7.80
2022-11-25T10:11:30.636Z,7.80
2022-11-25T10:14:02.762Z,7.80
2022-11-25T10:16:36.061Z,7.80
2022-11-25T10:19:10.995Z,7.90
2022-11-25T10:21:39.331Z,8.00
2022-11-25T10:24:11.608Z,8.20
2022-11-25T10:26:42.791Z,8.50
2022-11-25T10:29:23.049Z,8.90
2022-11-25T10:31:55.162Z,9.10
2022-11-25T10:34:30.382Z,9.30
2022-11-25T10:37:01.472Z,9.50
2022-11-25T10:39:31.690Z,9.50
2022-11-25T10:42:03.477Z,9.60
2022-11-25T10:44:32.618Z,9.80
2022-11-25T10:47:15.654Z,9.90
2022-11-25T10:49:51.642Z,9.90
2022-11-25T10:52:23.844Z,9.80
2022-11-25T10:55:11.253Z,9.80
2022-11-25T10:57:38.233Z,9.80
2022-11-25T11:00:12.754Z,9.70
2022-11-25T11:02:48.036Z,9.60
2022-11-25T11:05:20.702Z,9.50
2022-11-25T11:08:08.469Z,9.50
2022-11-25T11:10:35.905Z,9.40
2022-11-25T11:13:04.676Z,9.40
2022-11-25T11:15:33.481Z,9.40
2022-11-25T11:18:14.153Z,9.40
2022-11-25T11:20:47.004Z,9.30
2022-11-25T11:23:15.643Z,9.30
2022-11-25T11:25:53.833Z,9.30
2022-11-25T11:28:32.838Z,9.30
2022-11-25T11:31:02.797Z,9.20
2022-11-25T11:33:35.906Z,9.20
2022-11-25T11:36:27.115Z,9.20
2022-11-25T11:39:01.296Z,9.20
2022-11-25T11:41:36.670Z,9.20
2022-11-25T11:44:13.220Z,9.20
2022-11-25T11:46:59.782Z,9.20
2022-11-25T11:49:47.591Z,9.20
2022-11-25T11:52:26.191Z,9.20
2022-11-25T11:55:00.898Z,9.20
2022-11-25T11:57:35.638Z,9.20
2022-11-25T12:00:05.533Z,9.20
2022-11-25T12:02:53.265Z,9.20
2022-11-25T12:05:25.006Z,9.20
2022-11-25T12:08:00.009Z,9.20
2022-11-25T12:10:32.910Z,9.20
2022-11-25T12:13:08.427Z,9.20
2022-11-25T12:15:40.750Z,9.20
2022-11-25T12:18:16.288Z,9.30
2022-11-25T12:20:49.177Z,9.30
2022-11-25T12:23:20.433Z,9.30
2022-11-25T12:25:54.391Z,9.30
2022-11-25T12:28:29.060Z,9.40
2022-11-25T12:31:06.164Z,9.50
2022-11-25T12:33:43.825Z,9.60
2022-11-25T12:36:15.507Z,9.60
2022-11-25T12:38:47.011Z,9.60
2022-11-25T12:41:24.073Z,9.70
2022-11-25T12:43:56.477Z,9.70
2022-11-25T12:46:29.677Z,9.80
2022-11-25T12:48:58.887Z,9.80
2022-11-25T12:51:51.082Z,9.80
2022-11-25T12:54:49.586Z,9.80
2022-11-25T12:57:56.611Z,9.80
2022-11-25T13:00:42.448Z,9.80
2022-11-25T13:03:36.375Z,9.90
2022-11-25T13:06:25.992Z,9.90
2022-11-25T13:08:59.314Z,9.90
2022-11-25T13:11:55.934Z,9.90
2022-11-25T13:14:31.517Z,9.90
2022-11-25T13:17:00.334Z,9.90
2022-11-25T13:19:27.694Z,9.80
2022-11-25T13:21:59.742Z,9.80
2022-11-25T13:24:34.357Z,9.80
2022-11-25T13:27:01.823Z,9.70
2022-11-25T13:30:00.845Z,9.70
2022-11-25T13:32:40.141Z,9.70
2022-11-25T13:35:52.938Z,9.60
2022-11-25T13:39:05.675Z,9.60
2022-11-25T13:41:42.007Z,9.50
2022-11-25T13:44:21.133Z,9.50
2022-11-25T13:46:52.300Z,9.50
2022-11-25T13:49:26.462Z,9.60
2022-11-25T13:51:55.586Z,9.70
2022-11-25T13:54:27.090Z,9.80
2022-11-25T13:57:16.975Z,9.80
2022-11-25T13:59:54.266Z,9.80
2022-11-25T14:02:44.826Z,9.90
2022-11-25T14:05:46.509Z,9.90
2022-11-25T14:08:24.628Z,9.90
2022-11-25T14:10:58.587Z,10.10
2022-11-25T14:13:50.932Z,10.20
2022-11-25T14:16:40.717Z,10.20
2022-11-25T14:19:51.193Z,10.20
2022-11-25T14:22:40.654Z,10.20
2022-11-25T14:25:18.979Z,10.10
2022-11-25T14:27:48.789Z,10.10
2022-11-25T14:30:17.492Z,10.00
2022-11-25T14:32:57.708Z,9.90
2022-11-25T14:35:32.319Z,9.90
2022-11-25T14:38:03.137Z,9.80
2022-11-25T14:40:36.077Z,9.70
2022-11-25T14:43:07.700Z,9.70
2022-11-25T14:45:35.724Z,9.70
2022-11-25T14:48:14.263Z,9.60
2022-11-25T14:50:56.700Z,9.60
2022-11-25T14:53:23.771Z,9.50
2022-11-25T14:55:50.943Z,9.50
2022-11-25T14:58:18.192Z,9.40
2022-11-25T15:00:51.011Z,9.40
2022-11-25T15:03:20.047Z,9.30
2022-11-25T15:05:56.970Z,9.30
2022-11-25T15:08:25.052Z,9.30
2022-11-25T15:10:54.516Z,9.30
2022-11-25T15:13:32.111Z,9.20
2022-11-25T15:16:06.741Z,9.30
2022-11-25T15:18:35.615Z,9.20
2022-11-25T15:21:04.548Z,9.20
2022-11-25T15:23:36.235Z,9.20
2022-11-25T15:26:14.409Z,9.20
2022-11-25T15:28:41.901Z,9.20
2022-11-25T15:31:12.466Z,9.20
2022-11-25T15:33:41.123Z,9.20
2022-11-25T15:36:09.761Z,9.10
2022-11-25T15:38:41.113Z,9.10
2022-11-25T15:41:27.577Z,9.10
2022-11-25T15:43:56.308Z,9.10
2022-11-25T15:46:24.796Z,9.10
2022-11-25T15:48:55.157Z,9.10
2022-11-25T15:51:32.069Z,9.10
2022-11-25T15:54:03.120Z,9.00
2022-11-25T15:56:34.247Z,9.00
2022-11-25T15:59:02.052Z,9.00
2022-11-25T16:01:30.196Z,9.00
2022-11-25T16:04:10.857Z,9.00
2022-11-25T16:06:52.758Z,9.00
2022-11-25T16:09:22.031Z,8.90
2022-11-25T16:11:48.908Z,8.90
2022-11-25T16:14:24.161Z,8.90
2022-11-25T16:16:51.920Z,8.80
2022-11-25T16:19:20.564Z,8.80
2022-11-25T16:22:12.595Z,8.70
2022-11-25T16:24:46.336Z,8.70
2022-11-25T16:27:19.526Z,8.60
2022-11-25T16:29:52.446Z,8.60
2022-11-25T16:32:20.667Z,8.60
2022-11-25T16:34:47.923Z,8.60
2022-11-25T16:37:16.214Z,8.50
2022-11-25T16:39:43.118Z,8.50
2022-11-25T16:42:18.600Z,8.50
2022-11-25T16:44:48.610Z,8.50
2022-11-25T16:47:15.984Z,8.40
2022-11-25T16:49:42.927Z,8.40
2022-11-25T16:52:10.322Z,8.40
2022-11-25T16:54:39.374Z,8.40
2022-11-25T16:57:07.645Z,8.40
2022-11-25T16:59:39.219Z,8.50
2022-11-25T17:02:16.070Z,8.50
2022-11-25T17:04:43.197Z,8.60
2022-11-25T17:07:31.792Z,8.60
2022-11-25T17:10:00.278Z,8.60
2022-11-25T17:12:31.677Z,8.70
2022-11-25T17:14:59.966Z,8.60
2022-11-25T17:17:27.613Z,8.50
2022-11-25T17:19:55.022Z,8.50
2022-11-25T17:22:24.766Z,8.50
2022-11-25T17:24:51.763Z,8.50
2022-11-25T17:27:24.685Z,8.50
2022-11-25T17:29:52.503Z,8.50
2022-11-25T17:32:19.802Z,8.50
2022-11-25T17:34:46.758Z,8.40
2022-11-25T17:37:15.450Z,8.40
2022-11-25T17:39:42.653Z,8.40
2022-11-25T17:42:12.850Z,8.30
2022-11-25T17:44:42.273Z,8.30
2022-11-25T17:47:12.172Z,8.30
2022-11-25T17:49:39.487Z,8.40
2022-11-25T17:52:07.106Z,8.40
2022-11-25T17:54:34.171Z,8.40
2022-11-25T17:57:01.511Z,8.40
2022-11-25T17:59:30.617Z,8.40
2022-11-25T18:01:59.250Z,8.40
2022-11-25T18:04:28.052Z,8.40
2022-11-25T18:06:54.908Z,8.40
2022-11-25T18:09:21.847Z,8.40
2022-11-25T18:11:51.906Z,8.40
2022-11-25T18:14:24.785Z,8.40
2022-11-25T18:16:52.278Z,8.40
2022-11-25T18:19:20.974Z,8.40
2022-11-25T18:21:47.801Z,8.40
2022-11-25T18:24:14.670Z,8.50
2022-11-25T18:26:44.728Z,8.50
2022-11-25T18:29:15.327Z,8.50
2022-11-25T18:31:42.544Z,8.50
2022-11-25T18:34:13.633Z,8.50
2022-11-25T18:36:42.044Z,8.50
2022-11-25T18:39:09.951Z,8.50
2022-11-25T18:41:38.102Z,8.50
2022-11-25T18:44:06.634Z,8.50
2022-11-25T18:46:37.006Z,8.50
2022-11-25T18:49:11.314Z,8.50
2022-11-25T18:51:38.225Z,8.40
2022-11-25T18:54:08.008Z,8.50
2022-11-25T18:56:36.243Z,8.40
2022-11-25T18:59:04.849Z,8.40
2022-11-25T19:01:31.731Z,8.40
2022-11-25T19:04:00.013Z,8.50
2022-11-25T19:06:29.798Z,8.40
2022-11-25T19:08:56.687Z,8.40
2022-11-25T19:11:29.744Z,8.50
2022-11-25T19:14:01.831Z,8.40
2022-11-25T19:16:28.782Z,8.40
2022-11-25T19:18:55.737Z,8.40
2022-11-25T19:21:22.638Z,8.40
2022-11-25T19:23:49.542Z,8.40
2022-11-25T19:26:19.798Z,8.30
2022-11-25T19:28:51.428Z,8.30
2022-11-25T19:31:19.965Z,8.30
2022-11-25T19:33:51.063Z,8.20
2022-11-25T19:36:22.845Z,8.20
2022-11-25T19:38:49.729Z,8.10
2022-11-25T19:41:16.557Z,8.10
2022-11-25T19:43:43.509Z,8.10
2022-11-25T19:46:29.317Z,8.10
2022-11-25T19:49:00.730Z,8.00
2022-11-25T19:51:32.339Z,8.00
2022-11-25T19:53:59.229Z,8.00
2022-11-25T19:56:27.184Z,7.90
2022-11-25T19:58:54.480Z,7.90
2022-11-25T20:01:25.301Z,7.90
2022-11-25T20:03:53.731Z,7.90
2022-11-25T20:06:21.105Z,7.90
2022-11-25T20:08:47.972Z,7.80
2022-11-25T20:11:17.213Z,7.90
2022-11-25T20:13:45.779Z,7.90
2022-11-25T20:16:16.709Z,7.80
2022-11-25T20:18:46.102Z,7.80
2022-11-25T20:21:18.335Z,7.80
2022-11-25T20:23:47.146Z,7.80
2022-11-25T20:26:17.660Z,7.80
2022-11-25T20:28:44.577Z,7.80
2022-11-25T20:31:13.673Z,7.80
2022-11-25T20:33:40.758Z,7.70
2022-11-25T20:36:13.857Z,7.70
2022-11-25T20:38:45.323Z,7.70
2022-11-25T20:41:13.194Z,7.70
2022-11-25T20:43:41.811Z,7.70
2022-11-25T20:46:15.113Z,7.70
2022-11-25T20:48:42.655Z,7.70
2022-11-25T20:51:16.723Z,7.60
2022-11-25T20:53:46.267Z,7.60
2022-11-25T20:56:15.927Z,7.50
2022-11-25T20:58:42.918Z,7.50
2022-11-25T21:01:09.992Z,7.40
2022-11-25T21:03:36.923Z,7.30
2022-11-25T21:06:12.686Z,7.30
2022-11-25T21:08:45.262Z,7.30
2022-11-25T21:11:12.106Z,7.30
2022-11-25T21:13:38.929Z,7.30
2022-11-25T21:16:06.192Z,7.30
2022-11-25T21:18:33.133Z,7.30
2022-11-25T21:21:00.391Z,7.20
2022-11-25T21:23:30.350Z,7.20
2022-11-25T21:26:04.729Z,7.10
2022-11-25T21:28:32.180Z,7.10
2022-11-25T21:30:59.032Z,7.10
2022-11-25T21:33:25.936Z,7.10
2022-11-25T21:35:52.840Z,7.10
2022-11-25T21:38:22.533Z,7.10
2022-11-25T21:40:52.255Z,7.10
2022-11-25T21:43:23.854Z,7.00
2022-11-25T21:45:57.927Z,7.00
2022-11-25T21:48:26.681Z,6.90
2022-11-25T21:50:53.986Z,7.00
2022-11-25T21:53:20.948Z,7.00
2022-11-25T21:55:48.332Z,6.90
2022-11-25T21:58:18.359Z,6.90
2022-11-25T22:00:49.777Z,6.90
2022-11-25T22:03:18.408Z,6.90
2022-11-25T22:05:45.747Z,6.90
2022-11-25T22:08:12.798Z,6.90
2022-11-25T22:10:42.702Z,6.90
2022-11-25T22:13:14.835Z,6.90
2022-11-25T22:15:41.914Z,6.90
2022-11-25T22:18:17.651Z,6.90
2022-11-25T22:20:48.191Z,6.90
2022-11-25T22:23:19.441Z,6.90
2022-11-25T22:25:47.761Z,6.80
2022-11-25T22:28:15.592Z,6.80
2022-11-25T22:30:45.956Z,6.80
2022-11-25T22:33:15.121Z,6.80
2022-11-25T22:35:42.138Z,6.80
2022-11-25T22:38:13.750Z,6.80
2022-11-25T22:40:41.113Z,6.80
2022-11-25T22:43:13.794Z,6.80
2022-11-25T22:45:40.715Z,6.80
2022-11-25T22:48:07.633Z,6.70
2022-11-25T22:50:35.984Z,6.80
2022-11-25T22:53:02.942Z,6.70
2022-11-25T22:55:31.665Z,6.70
2022-11-25T22:57:59.987Z,6.70
2022-11-25T23:00:28.656Z,6.80
2022-11-25T23:02:59.251Z,6.80
2022-11-25T23:05:32.575Z,6.80
2022-11-25T23:08:02.544Z,6.70
2022-11-25T23:10:30.889Z,6.70
2022-11-25T23:12:57.805Z,6.70
2022-11-25T23:15:25.159Z,6.70
2022-11-25T23:17:54.954Z,6.70
2022-11-25T23:20:24.615Z,6.80
2022-11-25T23:22:51.605Z,6.90
2022-11-25T23:25:21.731Z,6.80
2022-11-25T23:27:49.004Z,6.80
2022-11-25T23:30:17.406Z,6.80
2022-11-25T23:32:45.193Z,6.80
2022-11-25T23:35:17.571Z,6.80
2022-11-25T23:37:46.448Z,6.80
2022-11-25T23:40:20.816Z,6.80
2022-11-25T23:42:48.108Z,6.70
2022-11-25T23:45:17.379Z,6.70
2022-11-25T23:47:45.622Z,6.70
2022-11-25T23:50:24.734Z,6.70
2022-11-25T23:52:52.302Z,6.70
2022-11-25T23:55:26.295Z,6.70
2022-11-25T23:57:53.650Z,6.80
